»·PEaware :: N262H KSAN-KPSP

N262H :: KSAN-KPSP

FLIGHT INFORMATION

Flight Status: Arrived
Operator: Privately registered:
United States
More flights under this callsign
Pilot: Paul K. (16555)
Aircraft: BEECH AIRCRAFT BARON
(BE58)
More flights by this aircraft type
Origin: KSAN San Diego Intl-Lindbergh
United States
Destination: KPSP Palm Springs Intl
United States
More flights between these airports :: More routes between these airports
Route:
File this flight plan on PilotEdge
Remarks:
Altitude:
(Current/Filed)
7,500ft
Speed:
(Current/Filed)
190kts
Departed: 18-Sep-17 07:44 PM
Arrived: 18-Sep-17 08:18 PM
Distance/Time
Traveled:
74nm/0:34
Distance/Time
To Go:
Arrived

Flight Plot

Page will automatically refresh every two minutes.


Map Options




Map Legend


Flown Route
Filed Route
Departure Airport
Arrival Airport
Navaid (VOR, NDB)
Fix

Horizontal Profiles

Position Reports

Time Latitude Longitude Heading Altitude Ground
Speed
18-Sep-17 19:36 32.732568 -117.177333 195 20ft 0kts
18-Sep-17 19:37 32.732568 -117.177333 195 20ft 0kts
18-Sep-17 19:38 32.732568 -117.177333 195 20ft 0kts
18-Sep-17 19:39 32.732568 -117.177333 195 20ft 0kts
18-Sep-17 19:40 32.732568 -117.177333 195 20ft 0kts
18-Sep-17 19:41 32.732446 -117.177372 194 20ft 0kts
18-Sep-17 19:42 32.732446 -117.177372 194 20ft 0kts
18-Sep-17 19:43 32.731234 -117.176137 106 20ft 11kts
18-Sep-17 19:44 32.731014 -117.175275 176 20ft 0kts
18-Sep-17 19:45 32.731014 -117.175275 176 20ft 0kts
18-Sep-17 19:46 32.731014 -117.175275 176 20ft 0kts
18-Sep-17 19:47 32.730856 -117.175260 174 20ft 7kts
18-Sep-17 19:48 32.731993 -117.183469 285 38ft 111kts
18-Sep-17 19:49 32.719812 -117.201325 124 2190ft 129kts
18-Sep-17 19:50 32.695855 -117.164344 129 3540ft 148kts
18-Sep-17 19:51 32.687644 -117.122063 50 4737ft 155kts
18-Sep-17 19:52 32.716683 -117.080566 46 5460ft 182kts
18-Sep-17 19:53 32.747819 -117.028997 51 5570ft 199kts
18-Sep-17 19:54 32.780172 -116.974138 59 5513ft 207kts
18-Sep-17 19:55 32.814443 -116.925748 27 6035ft 184kts
18-Sep-17 19:56 32.858747 -116.898522 18 6817ft 174kts
18-Sep-17 19:57 32.899405 -116.869944 31 7665ft 174kts
18-Sep-17 19:58 32.942989 -116.840890 351 7622ft 196kts
18-Sep-17 19:59 32.992777 -116.864594 310 7402ft 190kts
18-Sep-17 20:00 33.017292 -116.918058 283 7436ft 183kts
18-Sep-17 20:01 33.044842 -116.955350 15 7388ft 189kts
18-Sep-17 20:02 33.080212 -116.910784 45 7638ft 184kts
18-Sep-17 20:03 33.115934 -116.868517 40 7676ft 189kts
18-Sep-17 20:04 33.151760 -116.828521 39 7693ft 189kts
18-Sep-17 20:05 33.189743 -116.786511 39 7695ft 192kts
18-Sep-17 20:06 33.229332 -116.742786 39 7693ft 195kts
18-Sep-17 20:07 33.269344 -116.699219 39 7694ft 196kts
18-Sep-17 20:08 33.309506 -116.655314 39 7693ft 196kts
18-Sep-17 20:09 33.345169 -116.616311 39 7694ft 196kts
18-Sep-17 20:10 33.385572 -116.571495 39 7550ft 200kts
18-Sep-17 20:11 33.425502 -116.526603 39 7503ft 197kts
18-Sep-17 20:12 33.471516 -116.499830 0 7503ft 186kts
18-Sep-17 20:13 33.523140 -116.494783 0 7505ft 186kts
18-Sep-17 20:14 33.573312 -116.489481 4 7655ft 186kts
18-Sep-17 20:15 33.624196 -116.478301 4 7424ft 189kts
18-Sep-17 20:16 33.674506 -116.463575 12 6551ft 184kts
18-Sep-17 20:17 33.721967 -116.442424 18 4806ft 181kts
18-Sep-17 20:18 33.762397 -116.443119 313 2128ft 147kts
18-Sep-17 20:19 33.787721 -116.467731 324 1507ft 100kts
18-Sep-17 20:20 33.807753 -116.485638 323 959ft 78kts
18-Sep-17 20:21 33.824464 -116.500139 322 503ft 71kts
18-Sep-17 20:22 33.831766 -116.505972 66 480ft 3kts
18-Sep-17 20:23 33.830241 -116.504300 141 480ft 15kts
18-Sep-17 20:24 33.826478 -116.500976 143 480ft 19kts
18-Sep-17 20:25 33.824168 -116.498597 149 480ft 13kts
18-Sep-17 20:26 33.823541 -116.498336 61 480ft 0kts
18-Sep-17 20:27 33.823502 -116.498428 51 480ft 1kts
18-Sep-17 20:28 33.823486 -116.498452 50 480ft 0kts

Navigation Log

Ident Type
1. KSAN Airport
2. KPSP Airport